sensor_id;sensor_type;location;lat;lon;timestamp;P1;durP1;ratioP1;P2;durP2;ratioP2
23470;SDS011;11908;50.806;4.424;2023-05-31T00:02:23;7.65;;;6.85;;
23470;SDS011;11908;50.806;4.424;2023-05-31T00:04:49;7.68;;;6.68;;
23470;SDS011;11908;50.806;4.424;2023-05-31T00:07:15;12.65;;;7.35;;
23470;SDS011;11908;50.806;4.424;2023-05-31T00:09:40;10.57;;;6.78;;
23470;SDS011;11908;50.806;4.424;2023-05-31T00:12:06;7.82;;;6.28;;
23470;SDS011;11908;50.806;4.424;2023-05-31T00:14:32;8.63;;;6.93;;
23470;SDS011;11908;50.806;4.424;2023-05-31T00:16:58;8.18;;;6.38;;
23470;SDS011;11908;50.806;4.424;2023-05-31T00:19:24;8.40;;;6.53;;
23470;SDS011;11908;50.806;4.424;2023-05-31T00:21:50;9.52;;;6.68;;
23470;SDS011;11908;50.806;4.424;2023-05-31T00:24:15;8.43;;;6.90;;
23470;SDS011;11908;50.806;4.424;2023-05-31T00:26:41;9.18;;;7.30;;
23470;SDS011;11908;50.806;4.424;2023-05-31T00:29:07;8.75;;;6.60;;
23470;SDS011;11908;50.806;4.424;2023-05-31T00:31:33;9.73;;;7.45;;
23470;SDS011;11908;50.806;4.424;2023-05-31T00:33:58;9.25;;;6.80;;
23470;SDS011;11908;50.806;4.424;2023-05-31T00:36:24;8.18;;;6.93;;
23470;SDS011;11908;50.806;4.424;2023-05-31T00:38:50;7.88;;;6.40;;
23470;SDS011;11908;50.806;4.424;2023-05-31T00:41:16;8.55;;;6.40;;
23470;SDS011;11908;50.806;4.424;2023-05-31T00:43:45;9.80;;;6.50;;
23470;SDS011;11908;50.806;4.424;2023-05-31T00:46:17;11.63;;;7.30;;
23470;SDS011;11908;50.806;4.424;2023-05-31T00:48:50;8.68;;;6.53;;
23470;SDS011;11908;50.806;4.424;2023-05-31T00:51:17;8.35;;;7.25;;
23470;SDS011;11908;50.806;4.424;2023-05-31T00:53:43;10.73;;;6.82;;
23470;SDS011;11908;50.806;4.424;2023-05-31T00:56:09;8.27;;;6.72;;
23470;SDS011;11908;50.806;4.424;2023-05-31T00:58:36;8.55;;;7.45;;
23470;SDS011;11908;50.806;4.424;2023-05-31T01:01:02;8.82;;;7.20;;
23470;SDS011;11908;50.806;4.424;2023-05-31T01:03:28;10.50;;;7.43;;
23470;SDS011;11908;50.806;4.424;2023-05-31T01:05:54;9.93;;;7.35;;
23470;SDS011;11908;50.806;4.424;2023-05-31T01:08:20;11.20;;;8.00;;
23470;SDS011;11908;50.806;4.424;2023-05-31T01:10:46;12.07;;;7.50;;
23470;SDS011;11908;50.806;4.424;2023-05-31T01:15:56;13.52;;;8.43;;
23470;SDS011;11908;50.806;4.424;2023-05-31T01:18:31;12.25;;;7.72;;
23470;SDS011;11908;50.806;4.424;2023-05-31T01:21:03;17.88;;;8.23;;
23470;SDS011;11908;50.806;4.424;2023-05-31T01:28:38;10.40;;;8.10;;
23470;SDS011;11908;50.806;4.424;2023-05-31T01:31:07;11.50;;;7.80;;
23470;SDS011;11908;50.806;4.424;2023-05-31T01:33:34;12.65;;;8.80;;
23470;SDS011;11908;50.806;4.424;2023-05-31T01:36:01;10.60;;;7.70;;
23470;SDS011;11908;50.806;4.424;2023-05-31T01:38:28;8.73;;;7.82;;
23470;SDS011;11908;50.806;4.424;2023-05-31T01:40:54;9.15;;;8.13;;
23470;SDS011;11908;50.806;4.424;2023-05-31T01:43:22;10.77;;;8.50;;
23470;SDS011;11908;50.806;4.424;2023-05-31T01:45:50;12.00;;;8.88;;
23470;SDS011;11908;50.806;4.424;2023-05-31T01:48:18;10.30;;;9.18;;
23470;SDS011;11908;50.806;4.424;2023-05-31T01:50:44;12.85;;;8.88;;
23470;SDS011;11908;50.806;4.424;2023-05-31T01:53:10;9.88;;;8.40;;
23470;SDS011;11908;50.806;4.424;2023-05-31T01:55:37;11.90;;;8.20;;
23470;SDS011;11908;50.806;4.424;2023-05-31T01:58:02;10.80;;;8.60;;
23470;SDS011;11908;50.806;4.424;2023-05-31T02:00:30;10.82;;;8.90;;
23470;SDS011;11908;50.806;4.424;2023-05-31T02:02:56;10.10;;;8.18;;
23470;SDS011;11908;50.806;4.424;2023-05-31T02:05:22;14.18;;;9.00;;
23470;SDS011;11908;50.806;4.424;2023-05-31T02:07:48;10.73;;;8.75;;
23470;SDS011;11908;50.806;4.424;2023-05-31T02:10:14;9.75;;;8.75;;
23470;SDS011;11908;50.806;4.424;2023-05-31T02:12:40;10.98;;;8.45;;
23470;SDS011;11908;50.806;4.424;2023-05-31T02:15:07;8.93;;;7.97;;
23470;SDS011;11908;50.806;4.424;2023-05-31T02:17:38;11.45;;;8.95;;
23470;SDS011;11908;50.806;4.424;2023-05-31T02:20:09;14.15;;;8.75;;
23470;SDS011;11908;50.806;4.424;2023-05-31T02:22:37;12.93;;;9.35;;
23470;SDS011;11908;50.806;4.424;2023-05-31T02:25:08;11.68;;;8.80;;
23470;SDS011;11908;50.806;4.424;2023-05-31T02:27:35;9.30;;;8.40;;
23470;SDS011;11908;50.806;4.424;2023-05-31T02:30:01;14.30;;;8.82;;
23470;SDS011;11908;50.806;4.424;2023-05-31T02:32:27;11.50;;;9.15;;
23470;SDS011;11908;50.806;4.424;2023-05-31T02:34:53;12.48;;;9.15;;
23470;SDS011;11908;50.806;4.424;2023-05-31T02:37:18;10.10;;;8.93;;
23470;SDS011;11908;50.806;4.424;2023-05-31T02:39:44;11.43;;;9.27;;
23470;SDS011;11908;50.806;4.424;2023-05-31T02:42:10;14.45;;;9.02;;
23470;SDS011;11908;50.806;4.424;2023-05-31T02:44:35;11.35;;;8.95;;
23470;SDS011;11908;50.806;4.424;2023-05-31T02:47:01;11.23;;;9.07;;
23470;SDS011;11908;50.806;4.424;2023-05-31T02:49:27;12.35;;;8.45;;
23470;SDS011;11908;50.806;4.424;2023-05-31T02:51:52;10.85;;;9.38;;
23470;SDS011;11908;50.806;4.424;2023-05-31T02:54:18;13.38;;;9.10;;
23470;SDS011;11908;50.806;4.424;2023-05-31T02:56:44;14.75;;;9.77;;
23470;SDS011;11908;50.806;4.424;2023-05-31T02:59:10;12.55;;;9.98;;
23470;SDS011;11908;50.806;4.424;2023-05-31T03:01:36;12.75;;;10.27;;
23470;SDS011;11908;50.806;4.424;2023-05-31T03:04:02;12.13;;;10.65;;
23470;SDS011;11908;50.806;4.424;2023-05-31T03:06:27;12.52;;;9.85;;
23470;SDS011;11908;50.806;4.424;2023-05-31T03:08:53;15.15;;;10.02;;
23470;SDS011;11908;50.806;4.424;2023-05-31T03:11:19;11.25;;;9.95;;
23470;SDS011;11908;50.806;4.424;2023-05-31T03:13:44;12.65;;;10.70;;
23470;SDS011;11908;50.806;4.424;2023-05-31T03:16:10;15.32;;;10.38;;
23470;SDS011;11908;50.806;4.424;2023-05-31T03:18:36;12.13;;;10.82;;
23470;SDS011;11908;50.806;4.424;2023-05-31T03:21:02;14.00;;;11.10;;
23470;SDS011;11908;50.806;4.424;2023-05-31T03:23:28;14.40;;;10.57;;
23470;SDS011;11908;50.806;4.424;2023-05-31T03:25:54;16.00;;;10.35;;
23470;SDS011;11908;50.806;4.424;2023-05-31T03:28:19;12.18;;;10.95;;
23470;SDS011;11908;50.806;4.424;2023-05-31T03:30:45;12.10;;;10.80;;
23470;SDS011;11908;50.806;4.424;2023-05-31T03:33:11;13.13;;;10.82;;
23470;SDS011;11908;50.806;4.424;2023-05-31T03:35:36;13.23;;;11.55;;
23470;SDS011;11908;50.806;4.424;2023-05-31T03:38:02;13.85;;;11.07;;
23470;SDS011;11908;50.806;4.424;2023-05-31T03:40:28;12.38;;;11.10;;
23470;SDS011;11908;50.806;4.424;2023-05-31T03:42:53;12.98;;;10.45;;
23470;SDS011;11908;50.806;4.424;2023-05-31T03:45:19;16.45;;;12.07;;
23470;SDS011;11908;50.806;4.424;2023-05-31T03:47:45;13.77;;;12.18;;
23470;SDS011;11908;50.806;4.424;2023-05-31T03:50:10;14.70;;;11.88;;
23470;SDS011;11908;50.806;4.424;2023-05-31T03:52:36;14.02;;;12.07;;
23470;SDS011;11908;50.806;4.424;2023-05-31T03:55:02;14.23;;;11.55;;
23470;SDS011;11908;50.806;4.424;2023-05-31T03:57:28;15.55;;;11.90;;
23470;SDS011;11908;50.806;4.424;2023-05-31T03:59:54;19.52;;;13.10;;
23470;SDS011;11908;50.806;4.424;2023-05-31T04:02:20;14.27;;;11.80;;
23470;SDS011;11908;50.806;4.424;2023-05-31T04:04:46;12.15;;;10.73;;
23470;SDS011;11908;50.806;4.424;2023-05-31T04:07:12;14.60;;;12.25;;
23470;SDS011;11908;50.806;4.424;2023-05-31T04:09:37;12.70;;;11.40;;
23470;SDS011;11908;50.806;4.424;2023-05-31T04:12:03;13.88;;;10.85;;
23470;SDS011;11908;50.806;4.424;2023-05-31T04:14:32;14.88;;;13.20;;
23470;SDS011;11908;50.806;4.424;2023-05-31T04:16:58;14.30;;;12.80;;
23470;SDS011;11908;50.806;4.424;2023-05-31T04:19:23;12.90;;;11.40;;
23470;SDS011;11908;50.806;4.424;2023-05-31T04:21:49;14.80;;;12.50;;
23470;SDS011;11908;50.806;4.424;2023-05-31T04:24:15;12.65;;;11.27;;
23470;SDS011;11908;50.806;4.424;2023-05-31T04:26:40;13.10;;;11.70;;
23470;SDS011;11908;50.806;4.424;2023-05-31T04:29:06;12.10;;;10.50;;
23470;SDS011;11908;50.806;4.424;2023-05-31T04:31:32;14.20;;;10.57;;
23470;SDS011;11908;50.806;4.424;2023-05-31T04:34:01;9.68;;;8.70;;
23470;SDS011;11908;50.806;4.424;2023-05-31T04:36:29;9.55;;;8.55;;
23470;SDS011;11908;50.806;4.424;2023-05-31T04:38:57;9.95;;;8.25;;
23470;SDS011;11908;50.806;4.424;2023-05-31T04:41:23;10.82;;;8.20;;
23470;SDS011;11908;50.806;4.424;2023-05-31T04:43:52;16.42;;;7.90;;
23470;SDS011;11908;50.806;4.424;2023-05-31T04:46:18;9.43;;;7.93;;
23470;SDS011;11908;50.806;4.424;2023-05-31T04:48:46;8.68;;;7.78;;
23470;SDS011;11908;50.806;4.424;2023-05-31T04:51:15;8.48;;;7.60;;
23470;SDS011;11908;50.806;4.424;2023-05-31T04:53:42;8.90;;;7.80;;
23470;SDS011;11908;50.806;4.424;2023-05-31T04:56:08;10.30;;;7.28;;
23470;SDS011;11908;50.806;4.424;2023-05-31T04:58:35;9.15;;;7.32;;
23470;SDS011;11908;50.806;4.424;2023-05-31T05:01:01;11.00;;;7.50;;
23470;SDS011;11908;50.806;4.424;2023-05-31T05:03:27;9.18;;;7.47;;
23470;SDS011;11908;50.806;4.424;2023-05-31T05:05:53;10.55;;;7.47;;
23470;SDS011;11908;50.806;4.424;2023-05-31T05:08:21;8.52;;;7.47;;
23470;SDS011;11908;50.806;4.424;2023-05-31T05:10:47;10.25;;;6.93;;
23470;SDS011;11908;50.806;4.424;2023-05-31T05:13:13;9.65;;;7.32;;
23470;SDS011;11908;50.806;4.424;2023-05-31T05:15:41;8.40;;;7.47;;
23470;SDS011;11908;50.806;4.424;2023-05-31T05:18:06;9.82;;;7.10;;
23470;SDS011;11908;50.806;4.424;2023-05-31T05:20:32;10.13;;;7.93;;
23470;SDS011;11908;50.806;4.424;2023-05-31T05:22:58;9.80;;;7.95;;
23470;SDS011;11908;50.806;4.424;2023-05-31T05:25:27;8.80;;;7.57;;
23470;SDS011;11908;50.806;4.424;2023-05-31T05:27:53;9.90;;;8.02;;
23470;SDS011;11908;50.806;4.424;2023-05-31T05:30:18;9.27;;;7.38;;
23470;SDS011;11908;50.806;4.424;2023-05-31T05:32:44;9.00;;;7.75;;
23470;SDS011;11908;50.806;4.424;2023-05-31T05:35:10;8.20;;;7.15;;
23470;SDS011;11908;50.806;4.424;2023-05-31T05:37:36;8.60;;;7.70;;
23470;SDS011;11908;50.806;4.424;2023-05-31T05:40:02;9.02;;;7.22;;
23470;SDS011;11908;50.806;4.424;2023-05-31T05:42:31;12.25;;;7.20;;
23470;SDS011;11908;50.806;4.424;2023-05-31T05:44:57;9.60;;;8.35;;
23470;SDS011;11908;50.806;4.424;2023-05-31T05:47:22;12.07;;;8.60;;
23470;SDS011;11908;50.806;4.424;2023-05-31T05:49:49;9.23;;;8.30;;
23470;SDS011;11908;50.806;4.424;2023-05-31T05:52:15;11.20;;;8.15;;
23470;SDS011;11908;50.806;4.424;2023-05-31T05:54:40;11.60;;;7.80;;
23470;SDS011;11908;50.806;4.424;2023-05-31T05:57:06;9.90;;;7.80;;
23470;SDS011;11908;50.806;4.424;2023-05-31T05:59:32;8.75;;;7.75;;
23470;SDS011;11908;50.806;4.424;2023-05-31T06:01:57;9.38;;;7.88;;
23470;SDS011;11908;50.806;4.424;2023-05-31T06:04:23;10.43;;;8.57;;
23470;SDS011;11908;50.806;4.424;2023-05-31T06:06:49;10.05;;;8.02;;
23470;SDS011;11908;50.806;4.424;2023-05-31T06:09:14;9.40;;;7.80;;
23470;SDS011;11908;50.806;4.424;2023-05-31T06:11:41;12.07;;;7.90;;
23470;SDS011;11908;50.806;4.424;2023-05-31T06:14:06;10.77;;;8.07;;
23470;SDS011;11908;50.806;4.424;2023-05-31T06:16:32;10.23;;;7.45;;
23470;SDS011;11908;50.806;4.424;2023-05-31T06:18:58;8.80;;;7.35;;
23470;SDS011;11908;50.806;4.424;2023-05-31T06:21:23;13.10;;;8.10;;
23470;SDS011;11908;50.806;4.424;2023-05-31T06:23:49;9.75;;;8.00;;
23470;SDS011;11908;50.806;4.424;2023-05-31T06:26:15;8.57;;;7.55;;
23470;SDS011;11908;50.806;4.424;2023-05-31T06:28:41;12.55;;;7.80;;
23470;SDS011;11908;50.806;4.424;2023-05-31T06:31:07;10.63;;;7.43;;
23470;SDS011;11908;50.806;4.424;2023-05-31T06:33:34;8.70;;;6.90;;
23470;SDS011;11908;50.806;4.424;2023-05-31T06:36:00;9.05;;;7.38;;
23470;SDS011;11908;50.806;4.424;2023-05-31T06:38:26;10.48;;;7.97;;
23470;SDS011;11908;50.806;4.424;2023-05-31T06:40:51;9.90;;;8.13;;
23470;SDS011;11908;50.806;4.424;2023-05-31T06:43:17;12.18;;;8.35;;
23470;SDS011;11908;50.806;4.424;2023-05-31T06:45:43;11.35;;;8.75;;
23470;SDS011;11908;50.806;4.424;2023-05-31T06:48:08;12.20;;;8.15;;
23470;SDS011;11908;50.806;4.424;2023-05-31T06:50:34;9.20;;;8.10;;
23470;SDS011;11908;50.806;4.424;2023-05-31T06:53:00;9.95;;;7.65;;
23470;SDS011;11908;50.806;4.424;2023-05-31T06:55:25;9.65;;;7.72;;
23470;SDS011;11908;50.806;4.424;2023-05-31T06:57:51;10.45;;;7.82;;
23470;SDS011;11908;50.806;4.424;2023-05-31T07:00:17;12.27;;;8.27;;
23470;SDS011;11908;50.806;4.424;2023-05-31T07:02:44;12.43;;;7.72;;
23470;SDS011;11908;50.806;4.424;2023-05-31T07:05:10;11.02;;;8.20;;
23470;SDS011;11908;50.806;4.424;2023-05-31T07:07:35;10.65;;;8.13;;
23470;SDS011;11908;50.806;4.424;2023-05-31T07:10:01;13.77;;;8.07;;
23470;SDS011;11908;50.806;4.424;2023-05-31T07:12:28;11.38;;;8.00;;
23470;SDS011;11908;50.806;4.424;2023-05-31T07:14:53;11.20;;;7.40;;
23470;SDS011;11908;50.806;4.424;2023-05-31T07:17:19;11.13;;;8.38;;
23470;SDS011;11908;50.806;4.424;2023-05-31T07:19:45;11.15;;;7.63;;
23470;SDS011;11908;50.806;4.424;2023-05-31T07:22:15;8.50;;;7.55;;
23470;SDS011;11908;50.806;4.424;2023-05-31T07:24:41;9.70;;;7.50;;
23470;SDS011;11908;50.806;4.424;2023-05-31T07:27:08;12.32;;;7.10;;
23470;SDS011;11908;50.806;4.424;2023-05-31T07:29:34;9.90;;;7.00;;
23470;SDS011;11908;50.806;4.424;2023-05-31T07:32:00;9.40;;;7.30;;
23470;SDS011;11908;50.806;4.424;2023-05-31T07:34:25;9.45;;;6.50;;
23470;SDS011;11908;50.806;4.424;2023-05-31T07:36:51;10.98;;;6.82;;
23470;SDS011;11908;50.806;4.424;2023-05-31T07:39:17;11.30;;;7.15;;
23470;SDS011;11908;50.806;4.424;2023-05-31T07:41:43;8.93;;;6.28;;
23470;SDS011;11908;50.806;4.424;2023-05-31T07:44:09;13.25;;;6.80;;
23470;SDS011;11908;50.806;4.424;2023-05-31T07:46:34;11.93;;;7.30;;
23470;SDS011;11908;50.806;4.424;2023-05-31T07:49:03;9.05;;;7.22;;
23470;SDS011;11908;50.806;4.424;2023-05-31T07:51:29;16.13;;;6.93;;
23470;SDS011;11908;50.806;4.424;2023-05-31T07:53:55;8.98;;;6.55;;
23470;SDS011;11908;50.806;4.424;2023-05-31T07:56:21;8.52;;;6.55;;
23470;SDS011;11908;50.806;4.424;2023-05-31T07:58:47;8.25;;;6.80;;
23470;SDS011;11908;50.806;4.424;2023-05-31T08:01:13;12.32;;;6.45;;
23470;SDS011;11908;50.806;4.424;2023-05-31T08:03:40;11.32;;;6.40;;
23470;SDS011;11908;50.806;4.424;2023-05-31T08:06:06;11.48;;;5.82;;
23470;SDS011;11908;50.806;4.424;2023-05-31T08:08:32;8.70;;;7.00;;
23470;SDS011;11908;50.806;4.424;2023-05-31T08:11:00;8.23;;;6.75;;
23470;SDS011;11908;50.806;4.424;2023-05-31T08:13:26;10.15;;;6.63;;
23470;SDS011;11908;50.806;4.424;2023-05-31T08:15:53;11.88;;;7.47;;
23470;SDS011;11908;50.806;4.424;2023-05-31T08:18:20;10.93;;;6.63;;
23470;SDS011;11908;50.806;4.424;2023-05-31T08:20:46;11.80;;;7.07;;
23470;SDS011;11908;50.806;4.424;2023-05-31T08:23:21;9.43;;;6.22;;
23470;SDS011;11908;50.806;4.424;2023-05-31T08:25:47;11.93;;;6.47;;
23470;SDS011;11908;50.806;4.424;2023-05-31T08:28:13;8.32;;;6.20;;
23470;SDS011;11908;50.806;4.424;2023-05-31T08:30:39;13.10;;;6.38;;
23470;SDS011;11908;50.806;4.424;2023-05-31T08:33:05;8.98;;;5.63;;
23470;SDS011;11908;50.806;4.424;2023-05-31T08:35:31;8.85;;;6.18;;
23470;SDS011;11908;50.806;4.424;2023-05-31T08:37:57;12.80;;;6.50;;
23470;SDS011;11908;50.806;4.424;2023-05-31T08:40:22;10.98;;;6.60;;
23470;SDS011;11908;50.806;4.424;2023-05-31T08:45:17;10.35;;;6.05;;
23470;SDS011;11908;50.806;4.424;2023-05-31T08:47:44;9.10;;;6.60;;
23470;SDS011;11908;50.806;4.424;2023-05-31T08:50:14;8.48;;;5.38;;
23470;SDS011;11908;50.806;4.424;2023-05-31T08:52:42;8.70;;;5.70;;
23470;SDS011;11908;50.806;4.424;2023-05-31T08:55:10;9.82;;;5.93;;
23470;SDS011;11908;50.806;4.424;2023-05-31T08:57:36;13.27;;;5.88;;
23470;SDS011;11908;50.806;4.424;2023-05-31T09:00:03;8.45;;;4.95;;
23470;SDS011;11908;50.806;4.424;2023-05-31T09:02:35;10.95;;;5.93;;
23470;SDS011;11908;50.806;4.424;2023-05-31T09:05:05;8.95;;;4.88;;
23470;SDS011;11908;50.806;4.424;2023-05-31T09:07:35;9.60;;;6.47;;
23470;SDS011;11908;50.806;4.424;2023-05-31T09:10:02;9.93;;;5.88;;
23470;SDS011;11908;50.806;4.424;2023-05-31T09:12:28;11.57;;;5.70;;
23470;SDS011;11908;50.806;4.424;2023-05-31T09:14:54;10.90;;;5.57;;
23470;SDS011;11908;50.806;4.424;2023-05-31T09:17:20;9.95;;;5.18;;
23470;SDS011;11908;50.806;4.424;2023-05-31T09:19:53;9.85;;;4.97;;
23470;SDS011;11908;50.806;4.424;2023-05-31T09:22:23;11.60;;;5.95;;
23470;SDS011;11908;50.806;4.424;2023-05-31T09:24:56;7.20;;;4.78;;
23470;SDS011;11908;50.806;4.424;2023-05-31T09:27:22;11.70;;;5.63;;
23470;SDS011;11908;50.806;4.424;2023-05-31T09:29:52;12.93;;;5.38;;
23470;SDS011;11908;50.806;4.424;2023-05-31T09:32:19;10.88;;;5.85;;
23470;SDS011;11908;50.806;4.424;2023-05-31T09:34:45;9.50;;;5.03;;
23470;SDS011;11908;50.806;4.424;2023-05-31T09:37:21;14.40;;;4.82;;
23470;SDS011;11908;50.806;4.424;2023-05-31T09:39:57;11.18;;;5.38;;
23470;SDS011;11908;50.806;4.424;2023-05-31T09:42:25;11.73;;;5.43;;
23470;SDS011;11908;50.806;4.424;2023-05-31T09:44:52;9.68;;;5.45;;
23470;SDS011;11908;50.806;4.424;2023-05-31T09:47:24;7.95;;;4.57;;
23470;SDS011;11908;50.806;4.424;2023-05-31T09:49:53;11.98;;;5.15;;
23470;SDS011;11908;50.806;4.424;2023-05-31T09:52:21;9.43;;;4.95;;
23470;SDS011;11908;50.806;4.424;2023-05-31T09:54:51;8.80;;;4.88;;
23470;SDS011;11908;50.806;4.424;2023-05-31T09:57:29;10.02;;;5.25;;
23470;SDS011;11908;50.806;4.424;2023-05-31T10:00:05;9.63;;;5.20;;
23470;SDS011;11908;50.806;4.424;2023-05-31T10:02:42;12.60;;;5.38;;
23470;SDS011;11908;50.806;4.424;2023-05-31T10:05:13;14.95;;;4.78;;
23470;SDS011;11908;50.806;4.424;2023-05-31T10:07:40;8.57;;;4.63;;
23470;SDS011;11908;50.806;4.424;2023-05-31T10:10:07;8.82;;;4.15;;
23470;SDS011;11908;50.806;4.424;2023-05-31T10:12:53;8.60;;;4.60;;
23470;SDS011;11908;50.806;4.424;2023-05-31T10:15:25;10.35;;;3.92;;
23470;SDS011;11908;50.806;4.424;2023-05-31T10:17:55;10.27;;;4.30;;
23470;SDS011;11908;50.806;4.424;2023-05-31T10:20:38;7.85;;;4.40;;
23470;SDS011;11908;50.806;4.424;2023-05-31T10:23:09;14.43;;;4.43;;
23470;SDS011;11908;50.806;4.424;2023-05-31T10:25:46;8.50;;;3.58;;
23470;SDS011;11908;50.806;4.424;2023-05-31T10:28:31;9.55;;;4.28;;
23470;SDS011;11908;50.806;4.424;2023-05-31T10:31:13;10.93;;;4.28;;
23470;SDS011;11908;50.806;4.424;2023-05-31T10:33:40;11.30;;;3.53;;
23470;SDS011;11908;50.806;4.424;2023-05-31T10:36:13;7.55;;;3.78;;
23470;SDS011;11908;50.806;4.424;2023-05-31T10:38:42;10.55;;;5.30;;
23470;SDS011;11908;50.806;4.424;2023-05-31T10:41:26;7.07;;;3.35;;
23470;SDS011;11908;50.806;4.424;2023-05-31T10:44:06;6.43;;;3.33;;
23470;SDS011;11908;50.806;4.424;2023-05-31T10:46:37;10.23;;;3.70;;
23470;SDS011;11908;50.806;4.424;2023-05-31T10:49:05;6.20;;;3.40;;
23470;SDS011;11908;50.806;4.424;2023-05-31T10:54:14;7.63;;;3.55;;
23470;SDS011;11908;50.806;4.424;2023-05-31T10:56:56;8.50;;;3.47;;
23470;SDS011;11908;50.806;4.424;2023-05-31T10:59:23;11.57;;;4.00;;
23470;SDS011;11908;50.806;4.424;2023-05-31T11:01:51;7.07;;;3.30;;
23470;SDS011;11908;50.806;4.424;2023-05-31T11:04:21;11.32;;;3.72;;
23470;SDS011;11908;50.806;4.424;2023-05-31T11:06:54;7.78;;;3.28;;
23470;SDS011;11908;50.806;4.424;2023-05-31T11:09:37;10.50;;;3.17;;
23470;SDS011;11908;50.806;4.424;2023-05-31T11:12:04;8.45;;;3.50;;
23470;SDS011;11908;50.806;4.424;2023-05-31T11:14:31;8.18;;;2.92;;
23470;SDS011;11908;50.806;4.424;2023-05-31T11:19:30;8.30;;;3.22;;
23470;SDS011;11908;50.806;4.424;2023-05-31T11:21:57;7.45;;;3.13;;
23470;SDS011;11908;50.806;4.424;2023-05-31T11:27:02;10.93;;;2.83;;
23470;SDS011;11908;50.806;4.424;2023-05-31T11:33:00;9.60;;;3.00;;
23470;SDS011;11908;50.806;4.424;2023-05-31T11:35:11;5.03;;;3.05;;
23470;SDS011;11908;50.806;4.424;2023-05-31T11:37:39;6.72;;;2.90;;
23470;SDS011;11908;50.806;4.424;2023-05-31T11:40:09;8.95;;;2.85;;
23470;SDS011;11908;50.806;4.424;2023-05-31T11:42:37;9.27;;;2.47;;
23470;SDS011;11908;50.806;4.424;2023-05-31T11:45:11;7.68;;;2.55;;
23470;SDS011;11908;50.806;4.424;2023-05-31T11:47:39;9.75;;;2.75;;
23470;SDS011;11908;50.806;4.424;2023-05-31T11:50:19;10.73;;;3.13;;
23470;SDS011;11908;50.806;4.424;2023-05-31T11:52:45;7.43;;;2.80;;
23470;SDS011;11908;50.806;4.424;2023-05-31T11:55:12;7.82;;;2.90;;
23470;SDS011;11908;50.806;4.424;2023-05-31T12:00:11;7.53;;;2.85;;
23470;SDS011;11908;50.806;4.424;2023-05-31T12:02:38;6.32;;;2.60;;
23470;SDS011;11908;50.806;4.424;2023-05-31T12:05:05;7.28;;;2.30;;
23470;SDS011;11908;50.806;4.424;2023-05-31T12:07:31;10.98;;;2.92;;
23470;SDS011;11908;50.806;4.424;2023-05-31T12:09:57;6.22;;;3.00;;
23470;SDS011;11908;50.806;4.424;2023-05-31T12:12:23;7.75;;;2.90;;
23470;SDS011;11908;50.806;4.424;2023-05-31T12:14:49;12.05;;;2.85;;
23470;SDS011;11908;50.806;4.424;2023-05-31T12:17:16;5.60;;;2.80;;
23470;SDS011;11908;50.806;4.424;2023-05-31T12:19:42;12.13;;;2.88;;
23470;SDS011;11908;50.806;4.424;2023-05-31T12:22:08;7.13;;;2.85;;
23470;SDS011;11908;50.806;4.424;2023-05-31T12:24:34;8.82;;;3.25;;
23470;SDS011;11908;50.806;4.424;2023-05-31T12:27:01;7.15;;;2.20;;
23470;SDS011;11908;50.806;4.424;2023-05-31T12:29:30;8.15;;;2.55;;
23470;SDS011;11908;50.806;4.424;2023-05-31T12:31:59;7.40;;;2.92;;
23470;SDS011;11908;50.806;4.424;2023-05-31T12:34:27;5.88;;;2.33;;
23470;SDS011;11908;50.806;4.424;2023-05-31T12:36:55;6.70;;;2.67;;
23470;SDS011;11908;50.806;4.424;2023-05-31T12:39:22;11.18;;;3.15;;
23470;SDS011;11908;50.806;4.424;2023-05-31T12:41:51;14.60;;;3.13;;
23470;SDS011;11908;50.806;4.424;2023-05-31T12:44:18;10.23;;;2.90;;
23470;SDS011;11908;50.806;4.424;2023-05-31T12:46:45;11.20;;;2.88;;
23470;SDS011;11908;50.806;4.424;2023-05-31T12:49:22;5.97;;;2.72;;
23470;SDS011;11908;50.806;4.424;2023-05-31T12:51:56;8.05;;;2.92;;
23470;SDS011;11908;50.806;4.424;2023-05-31T12:54:27;5.78;;;2.88;;
23470;SDS011;11908;50.806;4.424;2023-05-31T12:56:53;9.98;;;2.72;;
23470;SDS011;11908;50.806;4.424;2023-05-31T12:59:20;8.93;;;2.58;;
23470;SDS011;11908;50.806;4.424;2023-05-31T13:01:46;16.73;;;2.63;;
23470;SDS011;11908;50.806;4.424;2023-05-31T13:04:12;5.72;;;2.47;;
23470;SDS011;11908;50.806;4.424;2023-05-31T13:06:38;6.55;;;2.72;;
23470;SDS011;11908;50.806;4.424;2023-05-31T13:09:04;6.30;;;3.20;;
23470;SDS011;11908;50.806;4.424;2023-05-31T13:11:41;6.55;;;2.50;;
23470;SDS011;11908;50.806;4.424;2023-05-31T13:14:08;8.95;;;2.47;;
23470;SDS011;11908;50.806;4.424;2023-05-31T13:16:35;11.05;;;3.00;;
23470;SDS011;11908;50.806;4.424;2023-05-31T13:19:05;12.45;;;2.75;;
23470;SDS011;11908;50.806;4.424;2023-05-31T13:21:31;8.25;;;2.70;;
23470;SDS011;11908;50.806;4.424;2023-05-31T13:23:58;6.90;;;2.50;;
23470;SDS011;11908;50.806;4.424;2023-05-31T13:26:25;10.70;;;2.95;;
23470;SDS011;11908;50.806;4.424;2023-05-31T13:28:54;8.55;;;3.28;;
23470;SDS011;11908;50.806;4.424;2023-05-31T13:31:21;5.40;;;3.22;;
23470;SDS011;11908;50.806;4.424;2023-05-31T13:33:48;6.63;;;2.70;;
23470;SDS011;11908;50.806;4.424;2023-05-31T13:36:15;10.27;;;2.83;;
23470;SDS011;11908;50.806;4.424;2023-05-31T13:38:42;10.40;;;3.05;;
23470;SDS011;11908;50.806;4.424;2023-05-31T13:41:07;6.38;;;2.80;;
23470;SDS011;11908;50.806;4.424;2023-05-31T13:43:33;7.65;;;2.70;;
23470;SDS011;11908;50.806;4.424;2023-05-31T13:46:02;11.00;;;3.47;;
23470;SDS011;11908;50.806;4.424;2023-05-31T13:48:28;8.95;;;3.05;;
23470;SDS011;11908;50.806;4.424;2023-05-31T13:50:54;8.95;;;3.10;;
23470;SDS011;11908;50.806;4.424;2023-05-31T13:53:20;7.13;;;2.90;;
23470;SDS011;11908;50.806;4.424;2023-05-31T13:55:46;6.43;;;2.80;;
23470;SDS011;11908;50.806;4.424;2023-05-31T13:58:12;10.40;;;3.00;;
23470;SDS011;11908;50.806;4.424;2023-05-31T14:00:38;11.73;;;3.35;;
23470;SDS011;11908;50.806;4.424;2023-05-31T14:03:04;7.50;;;2.65;;
23470;SDS011;11908;50.806;4.424;2023-05-31T14:05:30;5.72;;;2.33;;
23470;SDS011;11908;50.806;4.424;2023-05-31T14:07:56;10.48;;;2.78;;
23470;SDS011;11908;50.806;4.424;2023-05-31T14:10:22;9.07;;;2.78;;
23470;SDS011;11908;50.806;4.424;2023-05-31T14:12:48;10.18;;;2.83;;
23470;SDS011;11908;50.806;4.424;2023-05-31T14:15:14;9.25;;;3.00;;
23470;SDS011;11908;50.806;4.424;2023-05-31T14:17:40;7.05;;;2.80;;
23470;SDS011;11908;50.806;4.424;2023-05-31T14:20:06;9.05;;;2.83;;
23470;SDS011;11908;50.806;4.424;2023-05-31T14:22:32;7.00;;;2.38;;
23470;SDS011;11908;50.806;4.424;2023-05-31T14:24:58;7.15;;;2.55;;
23470;SDS011;11908;50.806;4.424;2023-05-31T14:27:24;14.15;;;2.85;;
23470;SDS011;11908;50.806;4.424;2023-05-31T14:29:50;12.07;;;2.85;;
23470;SDS011;11908;50.806;4.424;2023-05-31T14:32:16;12.00;;;3.00;;
23470;SDS011;11908;50.806;4.424;2023-05-31T14:34:45;11.75;;;2.80;;
23470;SDS011;11908;50.806;4.424;2023-05-31T14:37:14;5.10;;;2.38;;
23470;SDS011;11908;50.806;4.424;2023-05-31T14:39:40;10.07;;;2.90;;
23470;SDS011;11908;50.806;4.424;2023-05-31T14:42:06;11.48;;;2.75;;
23470;SDS011;11908;50.806;4.424;2023-05-31T14:44:32;10.38;;;2.67;;
23470;SDS011;11908;50.806;4.424;2023-05-31T14:47:00;9.52;;;2.72;;
23470;SDS011;11908;50.806;4.424;2023-05-31T14:49:26;10.00;;;2.53;;
23470;SDS011;11908;50.806;4.424;2023-05-31T14:51:52;8.52;;;2.55;;
23470;SDS011;11908;50.806;4.424;2023-05-31T14:54:18;9.90;;;2.50;;
23470;SDS011;11908;50.806;4.424;2023-05-31T14:56:44;6.47;;;2.80;;
23470;SDS011;11908;50.806;4.424;2023-05-31T14:59:10;10.20;;;2.38;;
23470;SDS011;11908;50.806;4.424;2023-05-31T15:01:36;8.50;;;2.20;;
23470;SDS011;11908;50.806;4.424;2023-05-31T15:04:09;10.95;;;3.17;;
23470;SDS011;11908;50.806;4.424;2023-05-31T15:06:36;9.98;;;2.83;;